createdAt,value
2024-02-13T00:01:52.852Z,9.00
2024-02-13T00:05:56.257Z,9.10
2024-02-13T00:09:59.429Z,9.30
2024-02-13T00:14:02.551Z,9.50
2024-02-13T00:18:07.316Z,9.60
2024-02-13T00:22:13.495Z,9.70
2024-02-13T00:26:17.573Z,9.80
2024-02-13T00:30:20.745Z,9.80
2024-02-13T00:34:46.069Z,9.80
2024-02-13T00:38:49.257Z,9.90
2024-02-13T00:42:53.985Z,9.90
2024-02-13T00:46:58.664Z,9.90
2024-02-13T00:51:02.173Z,9.80
2024-02-13T00:55:08.737Z,9.80
2024-02-13T00:59:12.279Z,9.70
2024-02-13T01:03:15.448Z,9.60
2024-02-13T01:07:19.347Z,9.60
2024-02-13T01:11:22.305Z,9.50
2024-02-13T01:15:25.409Z,9.30
2024-02-13T01:19:28.581Z,9.20
2024-02-13T01:23:31.623Z,9.10
2024-02-13T01:27:34.820Z,9.00
2024-02-13T01:31:38.919Z,8.80
2024-02-13T01:35:43.600Z,8.70
2024-02-13T01:39:46.663Z,8.60
2024-02-13T01:43:50.594Z,8.50
2024-02-13T01:47:55.202Z,8.50
2024-02-13T01:52:00.318Z,8.30
2024-02-13T01:56:06.419Z,8.30
2024-02-13T02:00:15.672Z,8.10
2024-02-13T02:04:19.921Z,8.10
2024-02-13T02:08:23.578Z,8.00
2024-02-13T02:12:27.261Z,7.90
2024-02-13T02:16:30.301Z,7.70
2024-02-13T02:20:33.623Z,7.50
2024-02-13T02:24:36.689Z,7.40
2024-02-13T02:28:44.538Z,7.20
2024-02-13T02:32:51.014Z,7.10
2024-02-13T02:36:54.067Z,7.00
2024-02-13T02:40:57.363Z,7.00
2024-02-13T02:45:00.424Z,6.90
2024-02-13T02:49:04.007Z,6.80
2024-02-13T02:53:07.151Z,6.80
2024-02-13T02:57:11.807Z,6.70
2024-02-13T03:01:15.172Z,6.70
2024-02-13T03:05:18.294Z,6.70
2024-02-13T03:09:21.691Z,6.70
2024-02-13T03:13:24.582Z,6.60
2024-02-13T03:17:27.924Z,6.60
2024-02-13T03:21:30.901Z,6.60
2024-02-13T03:25:33.900Z,6.50
2024-02-13T03:29:55.063Z,6.50
2024-02-13T03:33:58.119Z,6.50
2024-02-13T03:38:01.156Z,6.50
2024-02-13T03:42:04.365Z,6.40
2024-02-13T03:46:07.446Z,6.40
2024-02-13T03:50:10.748Z,6.40
2024-02-13T03:54:13.869Z,6.40
2024-02-13T03:58:16.859Z,6.50
2024-02-13T04:02:19.931Z,6.50
2024-02-13T04:06:23.182Z,6.50
2024-02-13T04:10:26.224Z,6.50
2024-02-13T04:14:33.642Z,6.50
2024-02-13T04:18:36.795Z,6.50
2024-02-13T04:22:39.972Z,6.50
2024-02-13T04:26:43.763Z,6.50
2024-02-13T04:30:46.832Z,6.50
2024-02-13T04:34:49.936Z,6.50
2024-02-13T04:38:53.074Z,6.50
2024-02-13T04:42:56.140Z,6.50
2024-02-13T04:46:59.021Z,6.50
2024-02-13T04:51:02.828Z,6.50
2024-02-13T04:55:06.197Z,6.50
2024-02-13T04:59:10.961Z,6.50
2024-02-13T05:03:27.287Z,6.50
2024-02-13T05:07:33.076Z,6.50
2024-02-13T05:11:35.994Z,6.50
2024-02-13T05:15:38.982Z,6.50
2024-02-13T05:19:42.447Z,6.40
2024-02-13T05:23:45.534Z,6.40
2024-02-13T05:27:50.115Z,6.40
2024-02-13T05:31:54.072Z,6.30
2024-02-13T05:35:58.117Z,6.20
2024-02-13T05:40:01.027Z,6.20
2024-02-13T05:44:04.540Z,6.10
2024-02-13T05:48:08.825Z,6.10
2024-02-13T05:52:11.861Z,6.00
2024-02-13T05:56:25.996Z,6.00
2024-02-13T06:00:32.546Z,6.00
2024-02-13T06:04:36.324Z,6.00
2024-02-13T06:08:39.337Z,6.00
2024-02-13T06:12:43.121Z,5.90
2024-02-13T06:16:46.232Z,5.90
2024-02-13T06:20:49.268Z,5.90
2024-02-13T06:24:52.315Z,5.80
2024-02-13T06:28:56.310Z,5.80
2024-02-13T06:32:59.647Z,5.80
2024-02-13T06:37:03.169Z,5.70
2024-02-13T06:41:12.006Z,5.70
2024-02-13T06:45:15.318Z,5.80
2024-02-13T06:49:18.556Z,5.80
2024-02-13T06:53:21.891Z,5.80
2024-02-13T06:57:25.303Z,5.80
2024-02-13T07:01:30.904Z,5.80
2024-02-13T07:05:34.053Z,5.80
2024-02-13T07:09:37.403Z,5.90
2024-02-13T07:13:40.535Z,6.00
2024-02-13T07:17:52.707Z,6.00
2024-02-13T07:22:02.710Z,6.20
2024-02-13T07:26:05.866Z,6.50
2024-02-13T07:30:10.024Z,6.70
2024-02-13T07:34:14.782Z,6.70
2024-02-13T07:38:17.944Z,6.80
2024-02-13T07:42:22.385Z,7.00
2024-02-13T07:46:25.464Z,7.20
2024-02-13T07:50:29.677Z,7.50
2024-02-13T07:54:33.008Z,7.70
2024-02-13T07:58:37.496Z,8.00
2024-02-13T08:02:41.401Z,8.30
2024-02-13T08:06:44.501Z,8.50
2024-02-13T08:10:48.898Z,8.70
2024-02-13T08:14:53.213Z,8.80
2024-02-13T08:18:57.197Z,9.00
2024-02-13T08:23:01.149Z,9.20
2024-02-13T08:27:07.768Z,9.40
2024-02-13T08:31:14.122Z,9.60
2024-02-13T08:35:23.128Z,9.80
2024-02-13T08:39:26.227Z,10.00
2024-02-13T08:43:30.274Z,10.20
2024-02-13T08:47:34.357Z,10.30
2024-02-13T08:51:39.959Z,10.50
2024-02-13T08:55:49.632Z,10.60
2024-02-13T08:59:59.944Z,10.70
2024-02-13T09:04:08.060Z,10.90
2024-02-13T09:08:15.315Z,11.20
2024-02-13T09:12:25.046Z,11.50
2024-02-13T09:16:42.810Z,11.60
2024-02-13T09:21:30.283Z,11.80
2024-02-13T09:25:36.628Z,12.00
2024-02-13T09:39:23.760Z,12.40
2024-02-13T09:43:30.282Z,12.60
2024-02-13T09:47:35.149Z,12.80
2024-02-13T09:51:42.209Z,13.00
2024-02-13T09:55:49.738Z,13.20
2024-02-13T09:59:58.498Z,13.40
2024-02-13T10:04:06.032Z,13.60
2024-02-13T10:08:37.828Z,13.80
2024-02-13T10:13:16.030Z,14.00
2024-02-13T10:17:31.415Z,14.10
2024-02-13T10:21:37.320Z,14.20
2024-02-13T10:25:46.182Z,14.20
2024-02-13T10:30:03.238Z,14.20
2024-02-13T10:34:23.521Z,14.40
2024-02-13T10:39:13.243Z,14.50
2024-02-13T10:43:20.205Z,14.50
2024-02-13T10:47:30.153Z,14.60
2024-02-13T10:51:41.098Z,14.80
2024-02-13T10:55:47.971Z,15.00
2024-02-13T10:59:56.969Z,15.10
2024-02-13T11:04:08.504Z,15.30
2024-02-13T11:08:39.173Z,15.30
2024-02-13T11:13:22.288Z,15.60
2024-02-13T11:17:36.304Z,15.70
2024-02-13T11:21:56.692Z,15.60
2024-02-13T11:26:53.629Z,15.90
2024-02-13T11:30:58.647Z,16.50
2024-02-13T11:35:32.415Z,16.70
2024-02-13T11:39:48.709Z,16.70
2024-02-13T13:03:54.024Z,17.70
2024-02-13T13:08:00.758Z,17.60
2024-02-13T13:12:07.679Z,17.50
2024-02-13T13:16:13.980Z,17.50
2024-02-13T13:20:20.294Z,17.70
2024-02-13T13:24:25.390Z,18.00
2024-02-13T13:28:30.885Z,18.10
2024-02-13T13:32:35.456Z,18.20
2024-02-13T13:36:41.149Z,18.20
2024-02-13T13:40:50.928Z,18.00
2024-02-13T13:44:54.903Z,18.10
2024-02-13T13:49:32.918Z,18.10
2024-02-13T13:53:36.886Z,18.00
2024-02-13T13:57:40.352Z,17.70
2024-02-13T14:01:44.642Z,17.50
2024-02-13T14:05:47.878Z,17.40
2024-02-13T14:09:53.200Z,17.20
2024-02-13T14:13:58.715Z,17.10
2024-02-13T14:18:03.359Z,17.10
2024-02-13T14:22:13.197Z,17.10
2024-02-13T14:26:17.696Z,17.20
2024-02-13T14:30:59.284Z,17.40
2024-02-13T14:35:09.169Z,17.50
2024-02-13T14:49:05.456Z,17.50
2024-02-13T14:54:01.856Z,17.60
2024-02-13T14:58:23.056Z,17.60
2024-02-13T15:13:17.100Z,17.30
2024-02-13T15:17:23.667Z,17.30
2024-02-13T15:27:49.136Z,17.20
2024-02-13T17:12:01.850Z,13.20
2024-02-13T17:16:09.543Z,13.00
2024-02-13T17:20:15.271Z,13.00
2024-02-13T17:24:23.403Z,13.10
2024-02-13T17:29:21.863Z,13.20
2024-02-13T17:33:26.250Z,13.20
2024-02-13T17:37:33.689Z,13.20
2024-02-13T17:41:38.657Z,13.30
2024-02-13T17:45:46.751Z,13.30
2024-02-13T17:49:54.741Z,13.20
2024-02-13T17:54:45.117Z,13.20
2024-02-13T17:59:09.334Z,13.20
2024-02-13T18:03:25.970Z,13.20
2024-02-13T18:07:30.135Z,13.20
2024-02-13T18:11:34.810Z,13.20
2024-02-13T18:15:54.674Z,13.20
2024-02-13T18:19:57.844Z,13.00
2024-02-13T18:24:02.690Z,12.80
2024-02-13T18:28:07.596Z,12.60
2024-02-13T18:32:13.518Z,12.40
2024-02-13T18:36:19.148Z,12.20
2024-02-13T18:40:32.376Z,12.00
2024-02-13T18:44:38.284Z,11.90
2024-02-13T18:48:42.870Z,11.70
2024-02-13T18:52:47.135Z,11.50
2024-02-13T18:56:52.919Z,11.30
2024-02-13T19:00:59.519Z,11.10
2024-02-13T19:05:02.970Z,11.00
2024-02-13T19:09:11.026Z,10.80
2024-02-13T19:13:15.312Z,10.70
2024-02-13T19:17:21.838Z,10.60
2024-02-13T19:21:26.195Z,10.50
2024-02-13T19:25:33.708Z,10.40
2024-02-13T19:29:38.463Z,10.30
2024-02-13T19:33:42.884Z,10.10
2024-02-13T19:37:50.675Z,10.10
2024-02-13T19:42:05.293Z,10.00
2024-02-13T19:51:09.388Z,9.80
2024-02-13T19:55:34.693Z,9.70
2024-02-13T20:00:47.406Z,9.70
2024-02-13T20:05:19.839Z,9.60
2024-02-13T20:09:53.089Z,9.40
2024-02-13T20:14:24.683Z,9.40
2024-02-13T20:18:33.417Z,9.30
2024-02-13T20:22:41.982Z,9.20
2024-02-13T20:26:46.935Z,9.10
2024-02-13T20:30:53.950Z,9.10
2024-02-13T20:35:10.139Z,9.00
2024-02-13T20:39:16.436Z,8.90
2024-02-13T20:43:19.818Z,8.90
2024-02-13T20:51:48.512Z,8.80
2024-02-13T20:55:54.551Z,8.80
2024-02-13T21:00:34.744Z,8.80
2024-02-13T21:04:42.854Z,8.70
2024-02-13T21:09:51.127Z,8.60
2024-02-13T21:13:47.407Z,8.50
2024-02-13T21:18:08.083Z,8.40
2024-02-13T21:22:32.542Z,8.30
2024-02-13T21:27:35.559Z,8.10
2024-02-13T21:50:46.894Z,7.80
2024-02-13T21:54:50.472Z,7.70
2024-02-13T21:58:53.881Z,7.60
2024-02-13T22:03:08.946Z,7.50
2024-02-13T22:07:12.292Z,7.50
2024-02-13T22:11:15.492Z,7.50
2024-02-13T22:15:22.313Z,7.50
2024-02-13T22:19:25.940Z,7.50
2024-02-13T22:23:30.896Z,7.50
2024-02-13T22:27:36.713Z,7.40
2024-02-13T22:31:41.829Z,7.40
2024-02-13T22:35:45.163Z,7.40
2024-02-13T22:39:53.668Z,7.40
2024-02-13T22:44:08.657Z,7.30
2024-02-13T22:48:24.702Z,7.40
2024-02-13T22:52:38.392Z,7.30
2024-02-13T22:56:51.840Z,7.30
2024-02-13T23:01:05.615Z,7.30
2024-02-13T23:05:18.089Z,7.20
2024-02-13T23:14:42.711Z,7.00
2024-02-13T23:19:16.652Z,7.00
2024-02-13T23:23:30.444Z,7.00
2024-02-13T23:27:41.933Z,6.90
2024-02-13T23:32:13.853Z,6.90
2024-02-13T23:42:24.900Z,7.00
2024-02-13T23:53:05.519Z,6.80
